createdAt,value
2018-02-21T00:00:19.740Z,52.31
2018-02-21T00:02:52.276Z,52.29
2018-02-21T00:05:24.891Z,52.24
2018-02-21T00:07:57.398Z,52.11
2018-02-21T00:10:29.924Z,52.10
2018-02-21T00:13:03.006Z,52.41
2018-02-21T00:15:35.546Z,52.35
2018-02-21T00:18:08.083Z,52.86
2018-02-21T00:20:40.613Z,52.71
2018-02-21T00:23:13.139Z,53.07
2018-02-21T00:25:46.740Z,53.29
2018-02-21T00:28:19.308Z,53.39
2018-02-21T00:30:51.825Z,53.36
2018-02-21T00:33:24.337Z,52.91
2018-02-21T00:35:56.861Z,52.79
2018-02-21T00:38:29.357Z,52.67
2018-02-21T00:41:02.282Z,52.79
2018-02-21T00:43:34.823Z,52.83
2018-02-21T00:46:07.365Z,52.64
2018-02-21T00:48:39.880Z,52.88
2018-02-21T00:51:13.029Z,53.26
2018-02-21T00:53:45.594Z,53.44
2018-02-21T00:56:18.120Z,53.24
2018-02-21T00:58:50.623Z,53.14
2018-02-21T01:01:23.549Z,53.16
2018-02-21T01:03:56.103Z,53.40
2018-02-21T01:06:28.637Z,53.44
2018-02-21T01:09:01.140Z,53.06
2018-02-21T01:11:33.658Z,53.16
2018-02-21T01:14:06.568Z,53.20
2018-02-21T01:16:39.499Z,53.05
2018-02-21T01:19:12.308Z,53.44
2018-02-21T01:21:44.887Z,53.53
2018-02-21T01:24:17.400Z,53.95
2018-02-21T01:26:49.937Z,54.11
2018-02-21T01:29:22.435Z,54.20
2018-02-21T01:31:55.063Z,54.18
2018-02-21T01:34:27.898Z,54.08
2018-02-21T01:37:00.434Z,53.99
2018-02-21T01:39:33.141Z,53.68
2018-02-21T01:42:05.673Z,54.02
2018-02-21T01:44:38.246Z,53.68
2018-02-21T01:47:10.802Z,53.63
2018-02-21T01:49:43.304Z,53.50
2018-02-21T01:52:15.913Z,54.02
2018-02-21T01:54:48.419Z,54.07
2018-02-21T01:57:20.952Z,54.07
2018-02-21T01:59:53.632Z,54.19
2018-02-21T02:02:26.165Z,53.92
2018-02-21T02:04:58.855Z,53.78
2018-02-21T02:07:31.546Z,53.67
2018-02-21T02:10:04.058Z,53.50
2018-02-21T02:12:36.603Z,53.61
2018-02-21T02:15:09.102Z,53.65
2018-02-21T02:17:41.673Z,53.83
2018-02-21T02:20:14.209Z,53.73
2018-02-21T02:22:46.768Z,53.91
2018-02-21T02:25:19.277Z,54.08
2018-02-21T02:27:51.804Z,53.86
2018-02-21T02:30:24.360Z,54.12
2018-02-21T02:32:56.859Z,54.34
2018-02-21T02:35:29.358Z,54.40
2018-02-21T02:38:01.897Z,54.20
2018-02-21T02:40:34.401Z,54.06
2018-02-21T02:43:06.961Z,54.43
2018-02-21T02:45:39.480Z,54.76
2018-02-21T02:48:12.038Z,54.77
2018-02-21T02:50:44.577Z,54.54
2018-02-21T02:53:17.124Z,54.28
2018-02-21T02:55:49.803Z,54.38
2018-02-21T02:58:22.375Z,54.25
2018-02-21T03:00:55.002Z,54.51
2018-02-21T03:03:27.535Z,54.46
2018-02-21T03:06:00.039Z,54.90
2018-02-21T03:08:32.570Z,54.99
2018-02-21T03:11:05.083Z,54.84
2018-02-21T03:13:37.612Z,54.79
2018-02-21T03:16:10.131Z,54.65
2018-02-21T03:18:42.656Z,54.41
2018-02-21T03:21:15.172Z,54.33
2018-02-21T03:23:47.699Z,54.23
2018-02-21T03:26:20.204Z,54.49
2018-02-21T03:28:52.729Z,54.53
2018-02-21T03:31:25.273Z,54.76
2018-02-21T03:33:57.781Z,54.82
2018-02-21T03:36:30.317Z,54.61
2018-02-21T03:39:02.828Z,54.49
2018-02-21T03:41:35.360Z,54.71
2018-02-21T03:44:07.865Z,54.71
2018-02-21T03:46:40.479Z,54.62
2018-02-21T03:49:13.007Z,54.61
2018-02-21T03:51:45.565Z,54.30
2018-02-21T03:54:18.085Z,54.31
2018-02-21T03:56:50.612Z,54.42
2018-02-21T03:59:23.112Z,54.55
2018-02-21T04:01:55.660Z,54.87
2018-02-21T04:04:28.165Z,55.15
2018-02-21T04:07:00.701Z,54.54
2018-02-21T04:09:33.641Z,54.83
2018-02-21T04:12:06.166Z,54.96
2018-02-21T04:14:38.674Z,54.90
2018-02-21T04:17:11.216Z,54.83
2018-02-21T04:19:43.729Z,54.45
2018-02-21T04:22:16.277Z,54.45
2018-02-21T04:24:48.783Z,54.38
2018-02-21T04:27:21.346Z,54.64
2018-02-21T04:29:53.862Z,54.75
2018-02-21T04:32:26.394Z,54.54
2018-02-21T04:34:58.916Z,54.46
2018-02-21T04:37:31.443Z,54.37
2018-02-21T04:40:03.950Z,54.44
2018-02-21T04:42:36.478Z,54.25
2018-02-21T04:45:08.991Z,54.33
2018-02-21T04:47:41.514Z,54.82
2018-02-21T04:50:14.015Z,55.00
2018-02-21T04:52:46.597Z,55.06
2018-02-21T04:55:24.850Z,54.94
2018-02-21T04:58:05.932Z,54.93
2018-02-21T05:00:38.471Z,55.01
2018-02-21T05:03:11.090Z,54.58
2018-02-21T05:05:43.588Z,54.40
2018-02-21T05:08:16.119Z,54.54
2018-02-21T05:10:48.625Z,55.09
2018-02-21T05:13:21.149Z,54.80
2018-02-21T05:15:53.659Z,55.06
2018-02-21T05:18:26.185Z,55.27
2018-02-21T05:20:58.693Z,55.49
2018-02-21T05:23:31.236Z,55.27
2018-02-21T05:26:03.754Z,54.81
2018-02-21T05:28:36.278Z,54.59
2018-02-21T05:31:09.601Z,54.85
2018-02-21T05:33:42.121Z,55.23
2018-02-21T05:36:14.623Z,54.94
2018-02-21T05:38:47.150Z,54.74
2018-02-21T05:41:19.661Z,54.64
2018-02-21T05:43:52.185Z,55.03
2018-02-21T05:46:24.680Z,55.07
2018-02-21T05:48:57.210Z,55.01
2018-02-21T05:51:29.707Z,54.66
2018-02-21T05:54:02.248Z,54.43
2018-02-21T05:56:34.754Z,54.78
2018-02-21T05:59:07.296Z,54.85
2018-02-21T06:01:39.807Z,54.60
2018-02-21T06:04:12.445Z,54.53
2018-02-21T06:06:44.973Z,54.93
2018-02-21T06:09:17.515Z,54.98
2018-02-21T06:11:50.093Z,55.17
2018-02-21T06:14:22.617Z,55.10
2018-02-21T06:16:55.112Z,54.76
2018-02-21T06:19:27.642Z,55.19
2018-02-21T06:22:00.160Z,55.03
2018-02-21T06:24:32.700Z,54.76
2018-02-21T06:27:05.199Z,54.71
2018-02-21T06:29:37.748Z,54.93
2018-02-21T06:32:10.276Z,54.89
2018-02-21T06:34:42.810Z,54.99
2018-02-21T06:37:15.320Z,55.09
2018-02-21T06:39:47.858Z,55.14
2018-02-21T06:42:20.373Z,54.75
2018-02-21T06:44:52.910Z,54.69
2018-02-21T06:47:25.460Z,55.04
2018-02-21T06:49:57.977Z,55.08
2018-02-21T06:52:30.526Z,55.20
2018-02-21T06:55:03.038Z,55.43
2018-02-21T06:57:35.594Z,55.18
2018-02-21T07:00:08.105Z,54.91
2018-02-21T07:02:40.637Z,54.75
2018-02-21T07:05:13.200Z,54.93
2018-02-21T07:07:45.725Z,55.26
2018-02-21T07:10:18.234Z,55.25
2018-02-21T07:12:50.777Z,55.01
2018-02-21T07:15:23.335Z,55.26
2018-02-21T07:17:55.838Z,55.56
2018-02-21T07:20:28.341Z,55.50
2018-02-21T07:23:00.860Z,55.05
2018-02-21T07:25:33.377Z,54.83
2018-02-21T07:28:05.904Z,54.74
2018-02-21T07:30:38.414Z,54.81
2018-02-21T07:33:10.939Z,55.73
2018-02-21T07:35:43.446Z,55.83
2018-02-21T07:38:15.981Z,55.26
2018-02-21T07:40:48.500Z,54.95
2018-02-21T07:43:21.026Z,54.77
2018-02-21T07:45:53.553Z,54.88
2018-02-21T07:48:26.087Z,54.65
2018-02-21T07:50:58.579Z,54.42
2018-02-21T07:53:31.104Z,54.31
2018-02-21T07:56:03.620Z,54.25
2018-02-21T07:58:36.156Z,54.22
2018-02-21T08:01:08.670Z,54.08
2018-02-21T08:03:41.199Z,54.01
2018-02-21T08:06:13.683Z,54.15
2018-02-21T08:08:46.221Z,54.32
2018-02-21T08:11:18.725Z,54.19
2018-02-21T08:13:51.238Z,54.20
2018-02-21T08:16:23.742Z,53.83
2018-02-21T08:18:56.264Z,53.52
2018-02-21T08:21:28.763Z,53.56
2018-02-21T08:24:01.319Z,54.15
2018-02-21T08:26:33.812Z,54.17
2018-02-21T08:29:06.327Z,54.20
2018-02-21T08:31:38.838Z,54.15
2018-02-21T08:34:11.368Z,54.14
2018-02-21T08:36:43.863Z,54.14
2018-02-21T08:39:16.374Z,54.07
2018-02-21T08:41:48.891Z,53.98
2018-02-21T08:44:21.410Z,53.81
2018-02-21T08:46:53.924Z,53.54
2018-02-21T08:49:26.478Z,53.59
2018-02-21T08:51:58.977Z,53.57
2018-02-21T08:54:31.498Z,53.60
2018-02-21T08:57:04.010Z,53.60
2018-02-21T08:59:36.537Z,53.85
2018-02-21T09:02:09.052Z,54.09
2018-02-21T09:04:41.593Z,54.08
2018-02-21T09:07:14.092Z,53.90
2018-02-21T09:09:46.618Z,53.41
2018-02-21T09:12:19.120Z,53.65
2018-02-21T09:14:51.632Z,53.36
2018-02-21T09:17:24.137Z,53.02
2018-02-21T09:19:56.652Z,52.89
2018-02-21T09:22:29.153Z,52.74
2018-02-21T09:25:01.684Z,52.44
2018-02-21T09:27:34.230Z,52.41
2018-02-21T09:30:06.770Z,51.85
2018-02-21T09:32:39.264Z,51.50
2018-02-21T09:35:11.797Z,51.09
2018-02-21T09:37:44.299Z,50.84
2018-02-21T09:40:16.827Z,50.97
2018-02-21T09:42:49.326Z,51.11
2018-02-21T09:45:21.847Z,50.99
2018-02-21T09:47:54.352Z,51.38
2018-02-21T09:50:26.874Z,50.53
2018-02-21T09:52:59.401Z,51.37
2018-02-21T09:55:31.935Z,50.60
2018-02-21T09:58:04.453Z,49.98
2018-02-21T10:00:36.981Z,50.11
2018-02-21T10:03:09.488Z,50.14
2018-02-21T10:05:42.004Z,50.04
2018-02-21T10:08:14.525Z,49.29
2018-02-21T10:10:47.060Z,49.33
2018-02-21T10:13:19.554Z,48.94
2018-02-21T10:15:52.088Z,49.43
2018-02-21T10:18:24.589Z,48.50
2018-02-21T10:20:57.110Z,48.53
2018-02-21T10:23:29.608Z,48.96
2018-02-21T10:26:02.119Z,49.04
2018-02-21T10:28:34.632Z,48.42
2018-02-21T10:31:07.164Z,48.10
2018-02-21T10:33:39.666Z,47.90
2018-02-21T10:36:12.203Z,47.11
2018-02-21T10:38:44.714Z,47.42
2018-02-21T10:41:17.232Z,47.28
2018-02-21T10:43:49.772Z,47.55
2018-02-21T10:46:22.277Z,46.96
2018-02-21T10:48:54.800Z,46.95
2018-02-21T10:51:27.312Z,46.91
2018-02-21T10:53:59.913Z,44.78
2018-02-21T10:56:32.398Z,45.94
2018-02-21T10:59:04.924Z,46.26
2018-02-21T11:01:37.442Z,46.46
2018-02-21T11:04:10.015Z,45.70
2018-02-21T11:06:42.521Z,45.96
2018-02-21T11:09:15.037Z,45.20
2018-02-21T11:11:47.547Z,45.66
2018-02-21T11:14:20.069Z,45.34
2018-02-21T11:16:52.591Z,44.67
2018-02-21T11:19:25.116Z,44.31
2018-02-21T11:21:57.621Z,43.28
2018-02-21T11:24:30.250Z,42.65
2018-02-21T11:27:02.750Z,42.67
2018-02-21T11:29:35.277Z,42.71
2018-02-21T11:32:07.836Z,40.40
2018-02-21T11:34:40.363Z,42.76
2018-02-21T11:37:12.873Z,43.15
2018-02-21T11:39:45.405Z,42.13
2018-02-21T11:42:17.896Z,42.29
2018-02-21T11:44:50.426Z,42.29
2018-02-21T11:47:22.931Z,42.09
2018-02-21T11:49:56.414Z,41.89
2018-02-21T11:52:28.927Z,42.18
2018-02-21T11:55:01.447Z,42.03
2018-02-21T11:57:33.950Z,40.61
2018-02-21T12:00:06.481Z,41.52
2018-02-21T12:02:38.988Z,41.49
2018-02-21T12:05:11.529Z,41.52
2018-02-21T12:07:44.053Z,41.38
2018-02-21T12:10:16.611Z,41.88
2018-02-21T12:12:49.126Z,41.37
2018-02-21T12:15:21.655Z,40.10
2018-02-21T12:17:54.148Z,40.23
2018-02-21T12:20:26.679Z,41.04
2018-02-21T12:22:59.182Z,39.70
2018-02-21T12:25:31.718Z,38.61
2018-02-21T12:28:04.220Z,39.98
2018-02-21T12:30:36.740Z,39.10
2018-02-21T12:33:09.251Z,37.29
2018-02-21T12:35:41.784Z,38.26
2018-02-21T12:38:14.288Z,38.75
2018-02-21T12:40:52.500Z,39.03
2018-02-21T12:43:25.092Z,37.42
2018-02-21T12:45:57.638Z,37.48
2018-02-21T12:48:30.153Z,37.16
2018-02-21T12:51:02.686Z,37.24
2018-02-21T12:53:35.227Z,37.41
2018-02-21T12:56:07.747Z,38.02
2018-02-21T12:58:40.256Z,37.95
2018-02-21T13:01:12.791Z,37.49
2018-02-21T13:03:45.313Z,38.67
2018-02-21T13:06:17.835Z,36.95
2018-02-21T13:08:50.340Z,35.71
2018-02-21T13:11:22.862Z,37.66
2018-02-21T13:13:55.381Z,37.68
2018-02-21T13:16:27.922Z,38.14
2018-02-21T13:19:00.467Z,38.04
2018-02-21T13:21:33.020Z,37.96
2018-02-21T13:24:05.519Z,37.28
2018-02-21T13:26:38.041Z,37.49
2018-02-21T13:29:10.575Z,37.49
2018-02-21T13:31:43.154Z,37.19
2018-02-21T13:34:15.671Z,36.46
2018-02-21T13:36:48.204Z,37.68
2018-02-21T13:39:20.721Z,37.70
2018-02-21T13:41:53.247Z,38.01
2018-02-21T13:44:25.766Z,38.05
2018-02-21T13:46:58.285Z,37.40
2018-02-21T13:49:30.803Z,37.76
2018-02-21T13:52:03.321Z,37.58
2018-02-21T13:54:35.829Z,36.79
2018-02-21T13:57:08.362Z,36.86
2018-02-21T13:59:40.864Z,37.97
2018-02-21T14:02:13.389Z,37.21
2018-02-21T14:04:45.890Z,36.66
2018-02-21T14:07:18.423Z,38.55
2018-02-21T14:09:50.987Z,38.06
2018-02-21T14:12:23.516Z,37.39
2018-02-21T14:14:56.020Z,38.32
2018-02-21T14:17:28.592Z,37.70
2018-02-21T14:20:01.064Z,37.41
2018-02-21T14:22:33.583Z,37.91
2018-02-21T14:25:06.082Z,38.09
2018-02-21T14:27:38.600Z,37.82
2018-02-21T14:30:11.109Z,37.84
2018-02-21T14:32:43.601Z,37.26
2018-02-21T14:35:16.137Z,37.25
2018-02-21T14:37:48.627Z,37.48
2018-02-21T14:40:21.146Z,38.09
2018-02-21T14:42:53.652Z,38.00
2018-02-21T14:45:26.178Z,37.89
2018-02-21T14:47:58.697Z,37.35
2018-02-21T14:50:31.220Z,37.78
2018-02-21T14:53:03.746Z,37.92
2018-02-21T14:55:36.261Z,37.38
2018-02-21T14:58:08.774Z,38.02
2018-02-21T15:00:41.305Z,37.32
2018-02-21T15:03:13.818Z,37.32
2018-02-21T15:05:46.336Z,37.27
2018-02-21T15:08:18.837Z,36.98
2018-02-21T15:10:51.371Z,37.30
2018-02-21T15:13:23.897Z,36.74
2018-02-21T15:15:56.431Z,37.16
2018-02-21T15:18:28.933Z,37.13
2018-02-21T15:21:01.461Z,37.61
2018-02-21T15:23:33.977Z,37.80
2018-02-21T15:26:06.517Z,38.43
2018-02-21T15:28:39.036Z,38.88
2018-02-21T15:31:11.570Z,38.13
2018-02-21T15:33:44.080Z,38.29
2018-02-21T15:36:16.608Z,37.82
2018-02-21T15:38:49.188Z,38.46
2018-02-21T15:41:21.738Z,38.62
2018-02-21T15:43:54.246Z,38.20
2018-02-21T15:46:26.801Z,38.37
2018-02-21T15:48:59.313Z,38.96
2018-02-21T15:51:31.853Z,38.78
2018-02-21T15:54:04.355Z,38.68
2018-02-21T15:56:36.881Z,38.35
2018-02-21T15:59:09.401Z,38.53
2018-02-21T16:01:41.954Z,39.29
2018-02-21T16:04:14.487Z,38.87
2018-02-21T16:06:47.013Z,38.78
2018-02-21T16:09:19.514Z,38.82
2018-02-21T16:11:52.041Z,38.81
2018-02-21T16:14:24.575Z,38.57
2018-02-21T16:16:57.103Z,39.25
2018-02-21T16:19:29.618Z,39.16
2018-02-21T16:22:02.170Z,39.37
2018-02-21T16:24:34.680Z,39.70
2018-02-21T16:27:07.230Z,39.73
2018-02-21T16:29:39.735Z,39.67
2018-02-21T16:34:51.155Z,39.89
2018-02-21T16:37:23.698Z,39.99
2018-02-21T16:39:56.217Z,40.19
2018-02-21T16:42:28.745Z,40.21
2018-02-21T16:45:01.252Z,40.28
2018-02-21T16:47:33.784Z,40.39
2018-02-21T16:50:06.299Z,40.14
2018-02-21T16:52:38.819Z,40.41
2018-02-21T16:55:11.329Z,40.33
2018-02-21T16:57:43.848Z,40.46
2018-02-21T17:00:16.369Z,40.18
2018-02-21T17:02:54.349Z,40.25
2018-02-21T17:05:26.874Z,40.22
2018-02-21T17:07:59.403Z,40.26
2018-02-21T17:10:31.903Z,40.28
2018-02-21T17:13:04.425Z,40.42
2018-02-21T17:15:36.928Z,40.60
2018-02-21T17:18:09.452Z,40.73
2018-02-21T17:20:41.981Z,40.83
2018-02-21T17:23:14.517Z,40.91
2018-02-21T17:25:47.022Z,40.99
2018-02-21T17:28:19.566Z,41.11
2018-02-21T17:30:52.064Z,41.22
2018-02-21T17:33:24.596Z,41.27
2018-02-21T17:35:57.092Z,41.42
2018-02-21T17:38:29.624Z,41.59
2018-02-21T17:44:08.885Z,41.77
2018-02-21T17:46:41.410Z,41.98
2018-02-21T17:49:13.916Z,41.95
2018-02-21T17:51:46.441Z,42.07
2018-02-21T17:54:18.942Z,42.22
2018-02-21T17:56:51.486Z,42.40
2018-02-21T17:59:23.982Z,42.83
2018-02-21T18:01:56.510Z,42.72
2018-02-21T18:04:29.006Z,42.70
2018-02-21T18:07:01.528Z,42.61
2018-02-21T18:09:34.048Z,42.77
2018-02-21T18:12:06.579Z,42.88
2018-02-21T18:14:39.092Z,42.95
2018-02-21T18:17:11.627Z,42.97
2018-02-21T18:19:44.129Z,43.01
2018-02-21T18:22:16.683Z,42.97
2018-02-21T18:24:49.238Z,43.08
2018-02-21T18:27:21.792Z,43.12
2018-02-21T18:29:54.335Z,43.31
2018-02-21T18:32:26.860Z,43.68
2018-02-21T18:34:59.366Z,43.72
2018-02-21T18:37:31.892Z,43.98
2018-02-21T18:40:04.447Z,43.94
2018-02-21T18:42:36.978Z,44.20
2018-02-21T18:45:09.475Z,44.39
2018-02-21T18:47:42.004Z,44.56
2018-02-21T18:50:18.337Z,44.63
2018-02-21T18:52:50.879Z,44.65
2018-02-21T18:55:23.391Z,44.92
2018-02-21T18:57:55.928Z,45.21
2018-02-21T19:00:28.441Z,45.72
2018-02-21T19:03:01.031Z,46.21
2018-02-21T19:05:33.540Z,46.50
2018-02-21T19:08:06.096Z,46.74
2018-02-21T19:10:38.606Z,46.95
2018-02-21T19:13:11.121Z,47.67
2018-02-21T19:15:43.624Z,47.22
2018-02-21T19:18:16.149Z,47.42
2018-02-21T19:20:48.651Z,47.80
2018-02-21T19:23:21.177Z,48.46
2018-02-21T19:25:53.687Z,48.39
2018-02-21T19:28:26.228Z,48.50
2018-02-21T19:30:58.736Z,48.24
2018-02-21T19:33:31.250Z,47.89
2018-02-21T19:36:03.756Z,48.01
2018-02-21T19:38:36.290Z,47.67
2018-02-21T19:41:08.824Z,47.71
2018-02-21T19:43:41.410Z,47.68
2018-02-21T19:46:13.916Z,48.25
2018-02-21T19:48:46.465Z,48.34
2018-02-21T19:51:18.975Z,48.94
2018-02-21T19:53:51.510Z,49.16
2018-02-21T19:56:24.012Z,49.25
2018-02-21T19:58:56.703Z,49.37
2018-02-21T20:01:29.183Z,49.00
2018-02-21T20:04:01.705Z,49.21
2018-02-21T20:06:34.274Z,49.33
2018-02-21T20:09:06.937Z,49.63
2018-02-21T20:11:39.454Z,49.32
2018-02-21T20:14:11.995Z,49.44
2018-02-21T20:16:44.576Z,48.90
2018-02-21T20:19:17.110Z,49.80
2018-02-21T20:21:49.712Z,49.93
2018-02-21T20:24:22.276Z,49.98
2018-02-21T20:26:54.821Z,50.18
2018-02-21T20:29:27.372Z,49.59
2018-02-21T20:31:59.952Z,49.55
2018-02-21T20:34:32.473Z,49.51
2018-02-21T20:37:05.037Z,49.86
2018-02-21T20:39:37.572Z,49.58
2018-02-21T20:42:10.096Z,49.74
2018-02-21T20:44:42.625Z,50.16
2018-02-21T20:47:15.151Z,50.50
2018-02-21T20:49:47.677Z,50.31
2018-02-21T20:52:20.222Z,50.38
2018-02-21T20:54:52.785Z,50.03
2018-02-21T20:57:25.287Z,50.04
2018-02-21T20:59:57.821Z,50.17
2018-02-21T21:02:30.336Z,50.50
2018-02-21T21:05:02.856Z,50.54
2018-02-21T21:07:35.404Z,50.63
2018-02-21T21:10:08.245Z,50.73
2018-02-21T21:12:40.812Z,50.44
2018-02-21T21:15:13.333Z,50.36
2018-02-21T21:17:45.841Z,50.96
2018-02-21T21:20:18.763Z,51.39
2018-02-21T21:22:51.305Z,51.62
2018-02-21T21:25:23.810Z,51.46
2018-02-21T21:27:56.323Z,51.25
2018-02-21T21:30:28.862Z,51.36
2018-02-21T21:33:01.436Z,51.49
2018-02-21T21:35:33.932Z,51.68
2018-02-21T21:38:06.468Z,51.85
2018-02-21T21:40:39.028Z,51.67
2018-02-21T21:43:11.573Z,51.70
2018-02-21T21:45:44.130Z,51.83
2018-02-21T21:48:16.652Z,52.03
2018-02-21T21:50:49.154Z,52.17
2018-02-21T21:53:21.689Z,51.92
2018-02-21T21:55:54.193Z,51.65
2018-02-21T21:58:26.848Z,51.55
2018-02-21T22:00:59.359Z,51.75
2018-02-21T22:03:31.911Z,51.97
2018-02-21T22:06:04.460Z,52.29
2018-02-21T22:08:36.992Z,52.58
2018-02-21T22:11:09.512Z,52.51
2018-02-21T22:13:42.025Z,52.53
2018-02-21T22:16:14.564Z,52.53
2018-02-21T22:18:47.093Z,52.88
2018-02-21T22:21:19.592Z,52.88
2018-02-21T22:23:52.146Z,52.84
2018-02-21T22:26:24.647Z,52.76
2018-02-21T22:28:57.189Z,52.86
2018-02-21T22:31:29.722Z,52.74
2018-02-21T22:34:02.262Z,52.57
2018-02-21T22:36:34.788Z,52.53
2018-02-21T22:39:07.306Z,52.24
2018-02-21T22:41:39.806Z,51.93
2018-02-21T22:44:12.329Z,51.85
2018-02-21T22:46:44.837Z,51.71
2018-02-21T22:49:17.367Z,52.25
2018-02-21T22:51:49.875Z,52.46
2018-02-21T22:54:22.411Z,52.47
2018-02-21T22:56:54.924Z,52.77
2018-02-21T22:59:27.451Z,52.73
2018-02-21T23:01:59.946Z,52.63
2018-02-21T23:04:32.488Z,52.93
2018-02-21T23:07:05.037Z,52.83
2018-02-21T23:09:37.564Z,53.09
2018-02-21T23:12:10.090Z,53.09
2018-02-21T23:14:42.614Z,53.22
2018-02-21T23:17:15.156Z,53.15
2018-02-21T23:19:47.677Z,53.04
2018-02-21T23:22:20.188Z,52.67
2018-02-21T23:24:52.744Z,52.48
2018-02-21T23:27:25.322Z,52.55
2018-02-21T23:29:57.867Z,52.59
2018-02-21T23:32:30.423Z,53.11
2018-02-21T23:35:02.954Z,53.05
2018-02-21T23:37:35.692Z,53.23
2018-02-21T23:40:08.255Z,53.19
2018-02-21T23:42:40.777Z,53.33
2018-02-21T23:45:13.308Z,53.27
2018-02-21T23:47:45.797Z,53.28
2018-02-21T23:50:18.354Z,53.16
2018-02-21T23:52:50.873Z,52.96
2018-02-21T23:55:23.415Z,53.13
2018-02-21T23:57:55.949Z,53.12
